sensor_id;sensor_type;location;lat;lon;timestamp;temperature;humidity
28725;DHT22;43472;48.980;9.646;2023-03-20T00:06:26;10.80;99.90
28725;DHT22;43472;48.980;9.646;2023-03-20T00:11:33;10.90;99.90
28725;DHT22;43472;48.980;9.646;2023-03-20T00:16:39;11.50;99.90
28725;DHT22;43472;48.980;9.646;2023-03-20T00:21:43;10.80;99.90
28725;DHT22;43472;48.980;9.646;2023-03-20T00:26:48;10.80;99.90
28725;DHT22;43472;48.980;9.646;2023-03-20T00:31:50;10.70;99.90
28725;DHT22;43472;48.980;9.646;2023-03-20T00:36:52;10.70;99.90
28725;DHT22;43472;48.980;9.646;2023-03-20T00:42:01;10.70;99.90
28725;DHT22;43472;48.980;9.646;2023-03-20T00:47:12;10.80;99.90
28725;DHT22;43472;48.980;9.646;2023-03-20T00:52:17;10.70;99.90
28725;DHT22;43472;48.980;9.646;2023-03-20T00:57:29;10.70;99.90
28725;DHT22;43472;48.980;9.646;2023-03-20T01:02:32;10.80;99.90
28725;DHT22;43472;48.980;9.646;2023-03-20T01:07:34;10.70;99.90
28725;DHT22;43472;48.980;9.646;2023-03-20T01:12:38;10.70;99.90
28725;DHT22;43472;48.980;9.646;2023-03-20T01:17:40;10.60;99.90
28725;DHT22;43472;48.980;9.646;2023-03-20T01:22:42;10.70;99.90
28725;DHT22;43472;48.980;9.646;2023-03-20T01:27:51;10.70;99.90
28725;DHT22;43472;48.980;9.646;2023-03-20T01:32:53;8.70;99.90
28725;DHT22;43472;48.980;9.646;2023-03-20T01:37:56;11.60;99.90
28725;DHT22;43472;48.980;9.646;2023-03-20T01:42:59;10.70;99.90
28725;DHT22;43472;48.980;9.646;2023-03-20T01:48:15;10.70;99.90
28725;DHT22;43472;48.980;9.646;2023-03-20T01:53:21;10.60;99.90
28725;DHT22;43472;48.980;9.646;2023-03-20T01:58:30;10.70;99.90
28725;DHT22;43472;48.980;9.646;2023-03-20T02:03:37;10.60;99.90
28725;DHT22;43472;48.980;9.646;2023-03-20T02:08:47;10.60;99.90
28725;DHT22;43472;48.980;9.646;2023-03-20T02:13:56;10.60;99.90
28725;DHT22;43472;48.980;9.646;2023-03-20T02:18:58;10.70;99.90
28725;DHT22;43472;48.980;9.646;2023-03-20T02:51:40;10.60;99.90
28725;DHT22;43472;48.980;9.646;2023-03-20T02:57:01;10.60;99.90
28725;DHT22;43472;48.980;9.646;2023-03-20T03:02:08;10.60;99.90
28725;DHT22;43472;48.980;9.646;2023-03-20T03:07:13;10.60;99.90
28725;DHT22;43472;48.980;9.646;2023-03-20T03:12:20;10.60;99.90
28725;DHT22;43472;48.980;9.646;2023-03-20T03:17:24;10.60;99.90
28725;DHT22;43472;48.980;9.646;2023-03-20T03:22:28;10.60;99.90
28725;DHT22;43472;48.980;9.646;2023-03-20T03:27:44;10.60;99.90
28725;DHT22;43472;48.980;9.646;2023-03-20T03:32:50;10.60;99.90
28725;DHT22;43472;48.980;9.646;2023-03-20T03:48:56;10.50;99.90
28725;DHT22;43472;48.980;9.646;2023-03-20T03:54:13;10.40;99.90
28725;DHT22;43472;48.980;9.646;2023-03-20T03:59:25;10.50;99.90
28725;DHT22;43472;48.980;9.646;2023-03-20T04:04:30;10.50;99.90
28725;DHT22;43472;48.980;9.646;2023-03-20T04:14:35;10.50;99.90
28725;DHT22;43472;48.980;9.646;2023-03-20T04:19:37;10.30;99.90
28725;DHT22;43472;48.980;9.646;2023-03-20T04:24:39;10.50;99.90
28725;DHT22;43472;48.980;9.646;2023-03-20T04:29:42;10.10;99.90
28725;DHT22;43472;48.980;9.646;2023-03-20T04:34:44;10.20;99.90
28725;DHT22;43472;48.980;9.646;2023-03-20T04:39:46;10.30;99.90
28725;DHT22;43472;48.980;9.646;2023-03-20T04:44:48;10.40;99.90
28725;DHT22;43472;48.980;9.646;2023-03-20T04:49:50;10.40;99.90
28725;DHT22;43472;48.980;9.646;2023-03-20T04:54:52;10.40;99.90
28725;DHT22;43472;48.980;9.646;2023-03-20T04:59:54;10.40;99.90
28725;DHT22;43472;48.980;9.646;2023-03-20T05:04:56;10.40;99.90
28725;DHT22;43472;48.980;9.646;2023-03-20T05:09:58;10.50;99.90
28725;DHT22;43472;48.980;9.646;2023-03-20T05:15:00;10.50;99.90
28725;DHT22;43472;48.980;9.646;2023-03-20T05:20:02;10.50;99.90
28725;DHT22;43472;48.980;9.646;2023-03-20T05:25:04;10.50;99.90
28725;DHT22;43472;48.980;9.646;2023-03-20T05:30:07;10.50;99.90
28725;DHT22;43472;48.980;9.646;2023-03-20T05:35:09;10.40;99.90
28725;DHT22;43472;48.980;9.646;2023-03-20T05:40:14;10.50;99.90
28725;DHT22;43472;48.980;9.646;2023-03-20T05:45:17;10.40;99.90
28725;DHT22;43472;48.980;9.646;2023-03-20T05:50:19;10.40;99.90
28725;DHT22;43472;48.980;9.646;2023-03-20T05:55:21;10.30;99.90
28725;DHT22;43472;48.980;9.646;2023-03-20T06:00:23;10.40;99.90
28725;DHT22;43472;48.980;9.646;2023-03-20T06:05:25;10.40;99.90
28725;DHT22;43472;48.980;9.646;2023-03-20T06:10:28;10.40;99.90
28725;DHT22;43472;48.980;9.646;2023-03-20T06:15:32;10.50;99.90
28725;DHT22;43472;48.980;9.646;2023-03-20T06:20:34;10.60;99.90
28725;DHT22;43472;48.980;9.646;2023-03-20T06:25:36;10.60;99.90
28725;DHT22;43472;48.980;9.646;2023-03-20T06:30:39;10.60;99.90
28725;DHT22;43472;48.980;9.646;2023-03-20T06:35:41;10.60;99.90
28725;DHT22;43472;48.980;9.646;2023-03-20T06:40:46;10.70;99.90
28725;DHT22;43472;48.980;9.646;2023-03-20T06:45:48;10.80;99.90
28725;DHT22;43472;48.980;9.646;2023-03-20T06:50:51;10.90;99.90
28725;DHT22;43472;48.980;9.646;2023-03-20T06:55:53;10.90;99.90
28725;DHT22;43472;48.980;9.646;2023-03-20T07:00:56;11.00;99.90
28725;DHT22;43472;48.980;9.646;2023-03-20T07:05:58;11.20;99.90
28725;DHT22;43472;48.980;9.646;2023-03-20T07:11:01;11.20;99.90
28725;DHT22;43472;48.980;9.646;2023-03-20T07:16:05;11.20;99.90
28725;DHT22;43472;48.980;9.646;2023-03-20T07:21:08;11.40;99.90
28725;DHT22;43472;48.980;9.646;2023-03-20T07:26:10;11.70;99.90
28725;DHT22;43472;48.980;9.646;2023-03-20T07:31:22;11.80;99.90
28725;DHT22;43472;48.980;9.646;2023-03-20T07:36:25;11.80;99.90
28725;DHT22;43472;48.980;9.646;2023-03-20T07:41:26;11.80;99.90
28725;DHT22;43472;48.980;9.646;2023-03-20T07:46:28;11.60;99.90
28725;DHT22;43472;48.980;9.646;2023-03-20T07:51:30;11.70;99.90
28725;DHT22;43472;48.980;9.646;2023-03-20T07:56:33;11.70;99.90
28725;DHT22;43472;48.980;9.646;2023-03-20T08:01:35;11.80;99.90
28725;DHT22;43472;48.980;9.646;2023-03-20T08:06:37;12.00;99.90
28725;DHT22;43472;48.980;9.646;2023-03-20T08:11:43;12.10;99.90
28725;DHT22;43472;48.980;9.646;2023-03-20T08:16:46;11.80;99.90
28725;DHT22;43472;48.980;9.646;2023-03-20T08:21:54;11.90;99.90
28725;DHT22;43472;48.980;9.646;2023-03-20T08:26:56;12.00;99.90
28725;DHT22;43472;48.980;9.646;2023-03-20T08:31:58;12.20;99.90
28725;DHT22;43472;48.980;9.646;2023-03-20T08:37:02;12.20;99.90
28725;DHT22;43472;48.980;9.646;2023-03-20T08:42:05;12.00;99.90
28725;DHT22;43472;48.980;9.646;2023-03-20T08:47:07;12.10;99.90
28725;DHT22;43472;48.980;9.646;2023-03-20T08:52:12;12.20;99.90
28725;DHT22;43472;48.980;9.646;2023-03-20T08:57:14;13.20;99.90
28725;DHT22;43472;48.980;9.646;2023-03-20T09:02:16;12.30;99.90
28725;DHT22;43472;48.980;9.646;2023-03-20T09:07:20;10.10;99.90
28725;DHT22;43472;48.980;9.646;2023-03-20T09:12:23;16.20;99.90
28725;DHT22;43472;48.980;9.646;2023-03-20T09:17:25;12.40;99.90
28725;DHT22;43472;48.980;9.646;2023-03-20T09:22:27;15.50;99.90
28725;DHT22;43472;48.980;9.646;2023-03-20T09:27:29;13.20;99.90
28725;DHT22;43472;48.980;9.646;2023-03-20T09:32:31;13.60;99.90
28725;DHT22;43472;48.980;9.646;2023-03-20T09:37:33;14.10;99.90
28725;DHT22;43472;48.980;9.646;2023-03-20T09:48:14;13.20;99.90
28725;DHT22;43472;48.980;9.646;2023-03-20T09:53:46;13.30;99.90
28725;DHT22;43472;48.980;9.646;2023-03-20T09:59:03;13.00;99.90
28725;DHT22;43472;48.980;9.646;2023-03-20T10:04:08;13.40;99.90
28725;DHT22;43472;48.980;9.646;2023-03-20T10:09:22;13.60;99.90
28725;DHT22;43472;48.980;9.646;2023-03-20T10:20:13;13.60;99.90
28725;DHT22;43472;48.980;9.646;2023-03-20T10:25:42;13.90;99.90
28725;DHT22;43472;48.980;9.646;2023-03-20T10:41:52;14.10;99.90
28725;DHT22;43472;48.980;9.646;2023-03-20T10:46:56;14.10;99.90
28725;DHT22;43472;48.980;9.646;2023-03-20T10:52:27;14.50;99.90
28725;DHT22;43472;48.980;9.646;2023-03-20T10:57:30;14.80;99.90
28725;DHT22;43472;48.980;9.646;2023-03-20T11:02:34;16.30;99.90
28725;DHT22;43472;48.980;9.646;2023-03-20T11:07:37;16.10;99.90
28725;DHT22;43472;48.980;9.646;2023-03-20T11:12:45;16.60;99.90
28725;DHT22;43472;48.980;9.646;2023-03-20T11:17:57;16.40;99.90
28725;DHT22;43472;48.980;9.646;2023-03-20T11:23:05;16.90;99.90
28725;DHT22;43472;48.980;9.646;2023-03-20T11:33:29;15.40;99.90
28725;DHT22;43472;48.980;9.646;2023-03-20T11:38:31;14.70;99.90
28725;DHT22;43472;48.980;9.646;2023-03-20T11:43:37;14.40;99.90
28725;DHT22;43472;48.980;9.646;2023-03-20T11:48:44;14.30;99.90
28725;DHT22;43472;48.980;9.646;2023-03-20T12:04:14;14.10;99.90
28725;DHT22;43472;48.980;9.646;2023-03-20T12:19:49;15.50;99.90
28725;DHT22;43472;48.980;9.646;2023-03-20T12:25:00;15.40;99.90
28725;DHT22;43472;48.980;9.646;2023-03-20T12:30:17;15.10;99.90
28725;DHT22;43472;48.980;9.646;2023-03-20T12:35:29;15.00;99.90
28725;DHT22;43472;48.980;9.646;2023-03-20T12:40:40;14.60;99.90
28725;DHT22;43472;48.980;9.646;2023-03-20T12:45:53;14.30;99.90
28725;DHT22;43472;48.980;9.646;2023-03-20T12:56:18;14.40;99.90
28725;DHT22;43472;48.980;9.646;2023-03-20T13:01:29;14.60;99.90
28725;DHT22;43472;48.980;9.646;2023-03-20T13:06:57;15.30;99.90
28725;DHT22;43472;48.980;9.646;2023-03-20T13:17:27;15.40;99.90
28725;DHT22;43472;48.980;9.646;2023-03-20T13:27:48;14.90;99.90
28725;DHT22;43472;48.980;9.646;2023-03-20T13:38:43;15.30;99.90
28725;DHT22;43472;48.980;9.646;2023-03-20T13:43:53;15.20;99.90
28725;DHT22;43472;48.980;9.646;2023-03-20T13:49:03;15.00;99.90
28725;DHT22;43472;48.980;9.646;2023-03-20T13:59:29;15.70;99.90
28725;DHT22;43472;48.980;9.646;2023-03-20T14:04:35;15.70;99.90
28725;DHT22;43472;48.980;9.646;2023-03-20T14:09:37;15.80;99.90
28725;DHT22;43472;48.980;9.646;2023-03-20T14:14:42;16.90;99.90
28725;DHT22;43472;48.980;9.646;2023-03-20T14:19:48;15.60;99.90
28725;DHT22;43472;48.980;9.646;2023-03-20T14:24:58;15.90;99.90
28725;DHT22;43472;48.980;9.646;2023-03-20T14:35:48;15.50;99.90
28725;DHT22;43472;48.980;9.646;2023-03-20T14:51:44;15.50;99.90
28725;DHT22;43472;48.980;9.646;2023-03-20T14:56:48;15.00;99.90
28725;DHT22;43472;48.980;9.646;2023-03-20T15:02:00;14.70;99.90
28725;DHT22;43472;48.980;9.646;2023-03-20T15:07:16;14.70;99.90
28725;DHT22;43472;48.980;9.646;2023-03-20T15:12:26;14.30;99.90
28725;DHT22;43472;48.980;9.646;2023-03-20T15:17:38;14.30;99.90
28725;DHT22;43472;48.980;9.646;2023-03-20T15:22:58;14.10;99.90
28725;DHT22;43472;48.980;9.646;2023-03-20T15:28:01;13.90;99.90
28725;DHT22;43472;48.980;9.646;2023-03-20T15:33:16;13.70;99.90
28725;DHT22;43472;48.980;9.646;2023-03-20T15:38:19;13.60;99.90
28725;DHT22;43472;48.980;9.646;2023-03-20T15:43:24;13.60;99.90
28725;DHT22;43472;48.980;9.646;2023-03-20T15:48:26;13.60;99.90
28725;DHT22;43472;48.980;9.646;2023-03-20T15:53:37;13.50;99.90
28725;DHT22;43472;48.980;9.646;2023-03-20T15:58:40;13.80;99.90
28725;DHT22;43472;48.980;9.646;2023-03-20T16:03:43;13.70;99.90
28725;DHT22;43472;48.980;9.646;2023-03-20T16:08:58;13.60;99.90
28725;DHT22;43472;48.980;9.646;2023-03-20T16:14:00;15.70;99.90
28725;DHT22;43472;48.980;9.646;2023-03-20T16:19:05;13.70;99.90
28725;DHT22;43472;48.980;9.646;2023-03-20T16:24:09;13.50;99.90
28725;DHT22;43472;48.980;9.646;2023-03-20T16:29:17;13.50;99.90
28725;DHT22;43472;48.980;9.646;2023-03-20T16:34:23;13.50;99.90
28725;DHT22;43472;48.980;9.646;2023-03-20T16:39:28;13.50;99.90
28725;DHT22;43472;48.980;9.646;2023-03-20T16:44:33;13.50;99.90
28725;DHT22;43472;48.980;9.646;2023-03-20T16:54:56;13.50;99.90
28725;DHT22;43472;48.980;9.646;2023-03-20T17:00:06;13.60;99.90
28725;DHT22;43472;48.980;9.646;2023-03-20T17:05:12;13.40;99.90
28725;DHT22;43472;48.980;9.646;2023-03-20T17:15:22;13.00;99.90
28725;DHT22;43472;48.980;9.646;2023-03-20T17:20:27;12.90;99.90
28725;DHT22;43472;48.980;9.646;2023-03-20T17:25:31;13.00;99.90
28725;DHT22;43472;48.980;9.646;2023-03-20T17:30:33;12.90;99.90
28725;DHT22;43472;48.980;9.646;2023-03-20T17:35:36;12.90;99.90
28725;DHT22;43472;48.980;9.646;2023-03-20T17:40:38;14.70;99.90
28725;DHT22;43472;48.980;9.646;2023-03-20T17:45:41;12.80;99.90
28725;DHT22;43472;48.980;9.646;2023-03-20T17:50:44;12.70;99.90
28725;DHT22;43472;48.980;9.646;2023-03-20T17:55:46;12.60;99.90
28725;DHT22;43472;48.980;9.646;2023-03-20T18:00:49;12.50;99.90
28725;DHT22;43472;48.980;9.646;2023-03-20T18:05:51;12.40;99.90
28725;DHT22;43472;48.980;9.646;2023-03-20T18:10:53;12.30;99.90
28725;DHT22;43472;48.980;9.646;2023-03-20T18:15:57;12.20;99.90
28725;DHT22;43472;48.980;9.646;2023-03-20T18:20:59;12.20;99.90
28725;DHT22;43472;48.980;9.646;2023-03-20T18:26:01;11.20;99.90
28725;DHT22;43472;48.980;9.646;2023-03-20T18:31:03;12.10;99.90
28725;DHT22;43472;48.980;9.646;2023-03-20T18:36:07;12.30;99.90
28725;DHT22;43472;48.980;9.646;2023-03-20T18:41:10;12.10;99.90
28725;DHT22;43472;48.980;9.646;2023-03-20T18:46:17;12.10;99.90
28725;DHT22;43472;48.980;9.646;2023-03-20T18:51:19;12.10;99.90
28725;DHT22;43472;48.980;9.646;2023-03-20T18:56:23;12.00;99.90
28725;DHT22;43472;48.980;9.646;2023-03-20T19:01:26;11.90;99.90
28725;DHT22;43472;48.980;9.646;2023-03-20T19:06:28;11.90;99.90
28725;DHT22;43472;48.980;9.646;2023-03-20T19:11:33;11.90;99.90
28725;DHT22;43472;48.980;9.646;2023-03-20T19:16:35;11.90;99.90
28725;DHT22;43472;48.980;9.646;2023-03-20T19:21:38;11.90;99.90
28725;DHT22;43472;48.980;9.646;2023-03-20T19:26:40;11.80;99.90
28725;DHT22;43472;48.980;9.646;2023-03-20T19:31:43;12.30;99.90
28725;DHT22;43472;48.980;9.646;2023-03-20T19:36:45;11.80;99.90
28725;DHT22;43472;48.980;9.646;2023-03-20T19:41:49;11.90;99.90
28725;DHT22;43472;48.980;9.646;2023-03-20T19:51:56;11.70;99.90
28725;DHT22;43472;48.980;9.646;2023-03-20T19:56:58;11.70;99.90
28725;DHT22;43472;48.980;9.646;2023-03-20T20:02:00;11.60;99.90
28725;DHT22;43472;48.980;9.646;2023-03-20T20:07:02;11.60;99.90
28725;DHT22;43472;48.980;9.646;2023-03-20T20:12:24;11.60;99.90
28725;DHT22;43472;48.980;9.646;2023-03-20T20:17:26;11.50;99.90
28725;DHT22;43472;48.980;9.646;2023-03-20T20:22:28;11.50;99.90
28725;DHT22;43472;48.980;9.646;2023-03-20T20:27:30;11.50;99.90
28725;DHT22;43472;48.980;9.646;2023-03-20T20:32:35;11.30;99.90
28725;DHT22;43472;48.980;9.646;2023-03-20T20:37:39;11.40;99.90
28725;DHT22;43472;48.980;9.646;2023-03-20T20:43:04;11.30;99.90
28725;DHT22;43472;48.980;9.646;2023-03-20T20:48:11;11.30;99.90
28725;DHT22;43472;48.980;9.646;2023-03-20T20:53:13;11.20;99.90
28725;DHT22;43472;48.980;9.646;2023-03-20T20:58:16;11.40;99.90
28725;DHT22;43472;48.980;9.646;2023-03-20T21:03:18;11.30;99.90
28725;DHT22;43472;48.980;9.646;2023-03-20T21:08:20;11.30;99.90
28725;DHT22;43472;48.980;9.646;2023-03-20T21:13:22;11.10;99.90
28725;DHT22;43472;48.980;9.646;2023-03-20T21:18:24;11.10;99.90
28725;DHT22;43472;48.980;9.646;2023-03-20T21:23:26;11.00;99.90
28725;DHT22;43472;48.980;9.646;2023-03-20T21:28:28;11.10;99.90
28725;DHT22;43472;48.980;9.646;2023-03-20T21:33:32;12.00;99.90
28725;DHT22;43472;48.980;9.646;2023-03-20T21:38:34;11.00;99.90
28725;DHT22;43472;48.980;9.646;2023-03-20T21:43:56;11.00;99.90
28725;DHT22;43472;48.980;9.646;2023-03-20T21:49:02;10.90;99.90
28725;DHT22;43472;48.980;9.646;2023-03-20T21:54:24;11.00;99.90
28725;DHT22;43472;48.980;9.646;2023-03-20T21:59:46;10.90;99.90
28725;DHT22;43472;48.980;9.646;2023-03-20T22:05:09;12.60;99.90
28725;DHT22;43472;48.980;9.646;2023-03-20T22:10:32;10.90;99.90
28725;DHT22;43472;48.980;9.646;2023-03-20T22:15:54;10.90;99.90
28725;DHT22;43472;48.980;9.646;2023-03-20T22:21:16;11.30;99.90
28725;DHT22;43472;48.980;9.646;2023-03-20T22:26:38;10.80;99.90
28725;DHT22;43472;48.980;9.646;2023-03-20T22:32:00;10.90;99.90
28725;DHT22;43472;48.980;9.646;2023-03-20T22:37:22;10.90;99.90
28725;DHT22;43472;48.980;9.646;2023-03-20T22:42:44;10.80;99.90
28725;DHT22;43472;48.980;9.646;2023-03-20T22:48:06;11.00;99.90
28725;DHT22;43472;48.980;9.646;2023-03-20T22:53:08;10.90;99.90
28725;DHT22;43472;48.980;9.646;2023-03-20T22:58:13;10.90;99.90
28725;DHT22;43472;48.980;9.646;2023-03-20T23:03:16;11.80;99.90
28725;DHT22;43472;48.980;9.646;2023-03-20T23:08:38;10.90;99.90
28725;DHT22;43472;48.980;9.646;2023-03-20T23:13:53;10.90;99.90
28725;DHT22;43472;48.980;9.646;2023-03-20T23:18:55;13.50;99.90
28725;DHT22;43472;48.980;9.646;2023-03-20T23:23:57;10.80;99.90
28725;DHT22;43472;48.980;9.646;2023-03-20T23:28:59;10.80;99.90
28725;DHT22;43472;48.980;9.646;2023-03-20T23:34:04;10.70;99.90
28725;DHT22;43472;48.980;9.646;2023-03-20T23:39:07;10.80;99.90
28725;DHT22;43472;48.980;9.646;2023-03-20T23:44:10;11.40;99.90
28725;DHT22;43472;48.980;9.646;2023-03-20T23:49:13;10.80;99.90
28725;DHT22;43472;48.980;9.646;2023-03-20T23:54:15;10.60;99.90
28725;DHT22;43472;48.980;9.646;2023-03-20T23:59:17;10.50;99.90
